sensor_id;sensor_type;location;lat;lon;timestamp;pressure;altitude;pressure_sealevel;temperature;humidity
18500;BME280;9379;52.134;11.576;2023-02-11T00:02:15;102370.28;;;6.22;86.61
18500;BME280;9379;52.134;11.576;2023-02-11T00:04:42;102389.84;;;6.38;86.46
18500;BME280;9379;52.134;11.576;2023-02-11T00:07:09;102386.53;;;6.53;86.03
18500;BME280;9379;52.134;11.576;2023-02-11T00:09:36;102374.13;;;6.55;86.16
18500;BME280;9379;52.134;11.576;2023-02-11T00:12:03;102379.88;;;6.44;86.23
18500;BME280;9379;52.134;11.576;2023-02-11T00:14:32;102366.28;;;6.54;86.10
18500;BME280;9379;52.134;11.576;2023-02-11T00:16:58;102373.34;;;6.53;86.15
18500;BME280;9379;52.134;11.576;2023-02-11T00:19:25;102363.94;;;6.46;86.70
18500;BME280;9379;52.134;11.576;2023-02-11T00:21:52;102358.41;;;6.52;86.30
18500;BME280;9379;52.134;11.576;2023-02-11T00:24:19;102353.47;;;6.65;86.14
18500;BME280;9379;52.134;11.576;2023-02-11T00:26:45;102356.31;;;6.60;86.18
18500;BME280;9379;52.134;11.576;2023-02-11T00:29:12;102362.09;;;6.68;86.31
18500;BME280;9379;52.134;11.576;2023-02-11T00:31:40;102358.53;;;6.69;86.24
18500;BME280;9379;52.134;11.576;2023-02-11T00:34:07;102364.09;;;6.84;86.00
18500;BME280;9379;52.134;11.576;2023-02-11T00:36:34;102368.56;;;6.82;85.86
18500;BME280;9379;52.134;11.576;2023-02-11T00:39:01;102364.66;;;6.90;85.74
18500;BME280;9379;52.134;11.576;2023-02-11T00:41:28;102355.25;;;7.03;85.18
18500;BME280;9379;52.134;11.576;2023-02-11T00:43:55;102366.13;;;6.97;85.09
18500;BME280;9379;52.134;11.576;2023-02-11T00:46:22;102367.91;;;6.97;85.25
18500;BME280;9379;52.134;11.576;2023-02-11T00:48:50;102372.34;;;6.76;86.15
18500;BME280;9379;52.134;11.576;2023-02-11T00:51:19;102369.09;;;6.90;86.11
18500;BME280;9379;52.134;11.576;2023-02-11T00:53:46;102375.22;;;6.90;86.23
18500;BME280;9379;52.134;11.576;2023-02-11T00:56:12;102372.47;;;6.73;86.61
18500;BME280;9379;52.134;11.576;2023-02-11T00:58:39;102391.56;;;6.80;87.07
18500;BME280;9379;52.134;11.576;2023-02-11T01:01:06;102391.47;;;6.81;87.00
18500;BME280;9379;52.134;11.576;2023-02-11T01:03:33;102400.53;;;6.55;87.94
18500;BME280;9379;52.134;11.576;2023-02-11T01:06:01;102382.38;;;6.88;86.64
18500;BME280;9379;52.134;11.576;2023-02-11T01:08:28;102385.47;;;6.57;87.81
18500;BME280;9379;52.134;11.576;2023-02-11T01:10:56;102404.25;;;6.71;88.03
18500;BME280;9379;52.134;11.576;2023-02-11T01:13:24;102393.09;;;6.85;87.25
18500;BME280;9379;52.134;11.576;2023-02-11T01:15:51;102391.91;;;6.72;87.76
18500;BME280;9379;52.134;11.576;2023-02-11T01:18:18;102383.06;;;6.73;87.76
18500;BME280;9379;52.134;11.576;2023-02-11T01:20:44;102359.47;;;6.68;87.35
18500;BME280;9379;52.134;11.576;2023-02-11T01:23:13;102363.88;;;6.88;86.96
18500;BME280;9379;52.134;11.576;2023-02-11T01:25:39;102380.41;;;6.73;87.64
18500;BME280;9379;52.134;11.576;2023-02-11T01:28:09;102372.81;;;6.86;87.63
18500;BME280;9379;52.134;11.576;2023-02-11T01:30:38;102364.50;;;6.93;87.10
18500;BME280;9379;52.134;11.576;2023-02-11T01:33:07;102361.94;;;6.92;87.18
18500;BME280;9379;52.134;11.576;2023-02-11T01:35:33;102359.88;;;6.98;86.86
18500;BME280;9379;52.134;11.576;2023-02-11T01:38:00;102366.59;;;7.06;86.75
18500;BME280;9379;52.134;11.576;2023-02-11T01:40:28;102333.88;;;6.89;86.64
18500;BME280;9379;52.134;11.576;2023-02-11T01:42:55;102367.91;;;7.16;86.61
18500;BME280;9379;52.134;11.576;2023-02-11T01:45:54;102368.19;;;7.10;86.82
18500;BME280;9379;52.134;11.576;2023-02-11T01:48:25;102356.88;;;7.06;87.53
18500;BME280;9379;52.134;11.576;2023-02-11T01:50:58;102353.00;;;6.94;87.46
18500;BME280;9379;52.134;11.576;2023-02-11T01:53:26;102358.50;;;6.90;87.45
18500;BME280;9379;52.134;11.576;2023-02-11T01:56:13;102343.88;;;7.01;87.13
18500;BME280;9379;52.134;11.576;2023-02-11T01:59:02;102372.63;;;7.28;86.74
18500;BME280;9379;52.134;11.576;2023-02-11T02:01:33;102362.41;;;7.20;87.01
18500;BME280;9379;52.134;11.576;2023-02-11T02:04:02;102373.78;;;7.22;86.63
18500;BME280;9379;52.134;11.576;2023-02-11T02:06:33;102369.63;;;7.36;86.35
18500;BME280;9379;52.134;11.576;2023-02-11T02:09:03;102348.56;;;7.34;86.17
18500;BME280;9379;52.134;11.576;2023-02-11T02:11:32;102358.84;;;7.59;85.84
18500;BME280;9379;52.134;11.576;2023-02-11T02:13:59;102359.69;;;7.41;86.52
18500;BME280;9379;52.134;11.576;2023-02-11T02:16:29;102359.63;;;7.23;86.59
18500;BME280;9379;52.134;11.576;2023-02-11T02:19:09;102355.91;;;7.46;86.34
18500;BME280;9379;52.134;11.576;2023-02-11T02:25:01;102342.91;;;7.42;86.28
18500;BME280;9379;52.134;11.576;2023-02-11T02:27:44;102330.91;;;7.53;86.50
18500;BME280;9379;52.134;11.576;2023-02-11T02:30:34;102313.75;;;7.24;87.72
18500;BME280;9379;52.134;11.576;2023-02-11T02:33:27;102315.25;;;7.11;88.10
18500;BME280;9379;52.134;11.576;2023-02-11T02:36:07;102319.31;;;7.56;87.07
18500;BME280;9379;52.134;11.576;2023-02-11T02:38:38;102303.50;;;7.36;88.02
18500;BME280;9379;52.134;11.576;2023-02-11T02:41:11;102308.22;;;7.48;87.69
18500;BME280;9379;52.134;11.576;2023-02-11T02:43:42;102304.44;;;7.53;87.91
18500;BME280;9379;52.134;11.576;2023-02-11T02:46:13;102288.63;;;7.88;86.75
18500;BME280;9379;52.134;11.576;2023-02-11T02:48:42;102261.56;;;7.64;86.85
18500;BME280;9379;52.134;11.576;2023-02-11T02:56:47;102271.00;;;7.34;90.66
18500;BME280;9379;52.134;11.576;2023-02-11T02:59:27;102270.56;;;7.24;91.38
18500;BME280;9379;52.134;11.576;2023-02-11T03:02:05;102268.50;;;7.30;91.38
18500;BME280;9379;52.134;11.576;2023-02-11T03:04:42;102279.88;;;7.32;91.77
18500;BME280;9379;52.134;11.576;2023-02-11T03:07:18;102273.47;;;7.37;91.18
18500;BME280;9379;52.134;11.576;2023-02-11T03:09:50;102276.06;;;7.38;91.27
18500;BME280;9379;52.134;11.576;2023-02-11T03:12:21;102271.34;;;7.62;90.22
18500;BME280;9379;52.134;11.576;2023-02-11T03:14:50;102269.97;;;7.36;91.49
18500;BME280;9379;52.134;11.576;2023-02-11T03:17:18;102273.81;;;7.48;91.11
18500;BME280;9379;52.134;11.576;2023-02-11T03:19:47;102281.31;;;7.21;92.02
18500;BME280;9379;52.134;11.576;2023-02-11T03:22:17;102270.69;;;7.40;91.09
18500;BME280;9379;52.134;11.576;2023-02-11T03:24:45;102278.22;;;7.30;92.33
18500;BME280;9379;52.134;11.576;2023-02-11T03:27:17;102276.13;;;7.55;91.38
18500;BME280;9379;52.134;11.576;2023-02-11T03:29:50;102281.91;;;7.45;91.43
18500;BME280;9379;52.134;11.576;2023-02-11T03:32:22;102278.84;;;7.54;91.71
18500;BME280;9379;52.134;11.576;2023-02-11T03:34:55;102261.00;;;7.21;92.78
18500;BME280;9379;52.134;11.576;2023-02-11T03:37:26;102284.13;;;7.35;92.91
18500;BME280;9379;52.134;11.576;2023-02-11T03:39:58;102286.97;;;7.49;92.74
18500;BME280;9379;52.134;11.576;2023-02-11T03:42:30;102284.00;;;7.38;93.13
18500;BME280;9379;52.134;11.576;2023-02-11T03:45:02;102286.78;;;7.35;93.15
18500;BME280;9379;52.134;11.576;2023-02-11T03:47:31;102288.00;;;7.47;93.07
18500;BME280;9379;52.134;11.576;2023-02-11T03:50:04;102283.13;;;7.38;93.13
18500;BME280;9379;52.134;11.576;2023-02-11T03:52:32;102284.56;;;7.45;93.28
18500;BME280;9379;52.134;11.576;2023-02-11T03:55:00;102289.09;;;7.60;92.57
18500;BME280;9379;52.134;11.576;2023-02-11T03:57:29;102283.56;;;7.47;92.92
18500;BME280;9379;52.134;11.576;2023-02-11T03:59:58;102277.91;;;7.55;93.03
18500;BME280;9379;52.134;11.576;2023-02-11T04:02:28;102268.53;;;7.48;93.23
18500;BME280;9379;52.134;11.576;2023-02-11T04:04:55;102265.13;;;7.46;93.47
18500;BME280;9379;52.134;11.576;2023-02-11T04:07:23;102250.25;;;7.43;93.50
18500;BME280;9379;52.134;11.576;2023-02-11T04:09:50;102258.28;;;7.42;94.17
18500;BME280;9379;52.134;11.576;2023-02-11T04:12:17;102267.25;;;7.38;94.41
18500;BME280;9379;52.134;11.576;2023-02-11T04:14:44;102269.22;;;7.34;94.69
18500;BME280;9379;52.134;11.576;2023-02-11T04:17:12;102273.13;;;7.44;94.13
18500;BME280;9379;52.134;11.576;2023-02-11T04:19:38;102249.38;;;7.07;95.44
18500;BME280;9379;52.134;11.576;2023-02-11T04:22:05;102274.75;;;7.47;94.51
18500;BME280;9379;52.134;11.576;2023-02-11T04:24:34;102254.88;;;7.38;94.23
18500;BME280;9379;52.134;11.576;2023-02-11T04:27:01;102270.56;;;7.43;94.57
18500;BME280;9379;52.134;11.576;2023-02-11T04:29:28;102272.34;;;7.42;94.49
18500;BME280;9379;52.134;11.576;2023-02-11T04:31:54;102256.41;;;7.06;95.67
18500;BME280;9379;52.134;11.576;2023-02-11T04:34:21;102266.63;;;7.32;95.28
18500;BME280;9379;52.134;11.576;2023-02-11T04:36:48;102239.50;;;7.10;95.69
18500;BME280;9379;52.134;11.576;2023-02-11T04:39:15;102262.31;;;7.49;94.77
18500;BME280;9379;52.134;11.576;2023-02-11T04:41:43;102250.00;;;7.48;95.30
18500;BME280;9379;52.134;11.576;2023-02-11T04:44:10;102249.59;;;7.38;95.55
18500;BME280;9379;52.134;11.576;2023-02-11T04:46:37;102249.09;;;7.49;95.00
18500;BME280;9379;52.134;11.576;2023-02-11T04:49:04;102248.47;;;7.44;95.20
18500;BME280;9379;52.134;11.576;2023-02-11T04:51:31;102258.53;;;7.36;95.96
18500;BME280;9379;52.134;11.576;2023-02-11T04:53:58;102260.09;;;7.40;96.15
18500;BME280;9379;52.134;11.576;2023-02-11T04:56:24;102253.22;;;7.54;95.51
18500;BME280;9379;52.134;11.576;2023-02-11T04:58:53;102261.19;;;7.36;96.28
18500;BME280;9379;52.134;11.576;2023-02-11T05:01:19;102257.28;;;7.25;97.13
18500;BME280;9379;52.134;11.576;2023-02-11T05:03:46;102251.69;;;7.31;96.86
18500;BME280;9379;52.134;11.576;2023-02-11T05:06:13;102248.28;;;7.29;97.37
18500;BME280;9379;52.134;11.576;2023-02-11T05:08:40;102237.97;;;7.42;96.96
18500;BME280;9379;52.134;11.576;2023-02-11T05:11:07;102240.81;;;7.38;97.06
18500;BME280;9379;52.134;11.576;2023-02-11T05:13:34;102237.16;;;7.40;97.36
18500;BME280;9379;52.134;11.576;2023-02-11T05:16:03;102224.94;;;7.38;97.06
18500;BME280;9379;52.134;11.576;2023-02-11T05:18:30;102239.66;;;7.43;97.41
18500;BME280;9379;52.134;11.576;2023-02-11T05:20:56;102235.84;;;7.31;97.33
18500;BME280;9379;52.134;11.576;2023-02-11T05:23:23;102240.28;;;7.31;97.96
18500;BME280;9379;52.134;11.576;2023-02-11T05:25:50;102230.81;;;7.25;98.69
18500;BME280;9379;52.134;11.576;2023-02-11T05:28:17;102235.25;;;7.44;98.36
18500;BME280;9379;52.134;11.576;2023-02-11T05:30:43;102234.84;;;7.51;98.04
18500;BME280;9379;52.134;11.576;2023-02-11T05:33:15;102231.00;;;7.40;98.23
18500;BME280;9379;52.134;11.576;2023-02-11T05:35:41;102230.97;;;7.41;98.71
18500;BME280;9379;52.134;11.576;2023-02-11T05:38:08;102232.16;;;7.53;97.86
18500;BME280;9379;52.134;11.576;2023-02-11T05:40:35;102237.88;;;7.44;98.74
18500;BME280;9379;52.134;11.576;2023-02-11T05:43:02;102239.91;;;7.56;98.66
18500;BME280;9379;52.134;11.576;2023-02-11T05:45:29;102240.03;;;7.36;99.23
18500;BME280;9379;52.134;11.576;2023-02-11T05:47:56;102239.44;;;7.48;99.46
18500;BME280;9379;52.134;11.576;2023-02-11T05:50:24;102238.41;;;7.50;99.66
18500;BME280;9379;52.134;11.576;2023-02-11T05:52:51;102234.72;;;7.54;98.97
18500;BME280;9379;52.134;11.576;2023-02-11T05:55:18;102240.72;;;7.39;99.98
18500;BME280;9379;52.134;11.576;2023-02-11T05:57:45;102240.66;;;7.41;100.00
18500;BME280;9379;52.134;11.576;2023-02-11T06:00:13;102246.59;;;7.46;100.00
18500;BME280;9379;52.134;11.576;2023-02-11T06:02:40;102247.22;;;7.51;100.00
18500;BME280;9379;52.134;11.576;2023-02-11T06:05:07;102250.19;;;7.26;100.00
18500;BME280;9379;52.134;11.576;2023-02-11T06:07:35;102256.25;;;7.47;100.00
18500;BME280;9379;52.134;11.576;2023-02-11T06:10:02;102249.28;;;7.80;99.62
18500;BME280;9379;52.134;11.576;2023-02-11T06:12:29;102257.19;;;7.63;99.72
18500;BME280;9379;52.134;11.576;2023-02-11T06:14:56;102249.56;;;7.74;98.81
18500;BME280;9379;52.134;11.576;2023-02-11T06:17:23;102233.63;;;7.58;100.00
18500;BME280;9379;52.134;11.576;2023-02-11T06:19:50;102242.31;;;7.43;100.00
18500;BME280;9379;52.134;11.576;2023-02-11T06:22:17;102234.91;;;7.50;100.00
18500;BME280;9379;52.134;11.576;2023-02-11T06:24:45;102222.88;;;7.44;100.00
18500;BME280;9379;52.134;11.576;2023-02-11T06:27:12;102233.03;;;7.52;100.00
18500;BME280;9379;52.134;11.576;2023-02-11T06:29:38;102234.31;;;7.62;100.00
18500;BME280;9379;52.134;11.576;2023-02-11T06:32:05;102215.78;;;7.45;100.00
18500;BME280;9379;52.134;11.576;2023-02-11T06:34:32;102233.53;;;7.60;100.00
18500;BME280;9379;52.134;11.576;2023-02-11T06:36:58;102240.38;;;7.47;100.00
18500;BME280;9379;52.134;11.576;2023-02-11T06:39:25;102252.53;;;7.68;100.00
18500;BME280;9379;52.134;11.576;2023-02-11T06:41:53;102254.50;;;7.65;100.00
18500;BME280;9379;52.134;11.576;2023-02-11T06:44:20;102242.81;;;7.69;100.00
18500;BME280;9379;52.134;11.576;2023-02-11T06:46:47;102226.03;;;7.51;100.00
18500;BME280;9379;52.134;11.576;2023-02-11T06:49:14;102235.41;;;7.58;100.00
18500;BME280;9379;52.134;11.576;2023-02-11T06:51:40;102240.16;;;7.69;100.00
18500;BME280;9379;52.134;11.576;2023-02-11T06:54:07;102230.16;;;7.39;100.00
18500;BME280;9379;52.134;11.576;2023-02-11T06:56:34;102241.84;;;7.52;100.00
18500;BME280;9379;52.134;11.576;2023-02-11T06:59:02;102248.38;;;7.45;100.00
18500;BME280;9379;52.134;11.576;2023-02-11T07:01:29;102244.44;;;7.71;100.00
18500;BME280;9379;52.134;11.576;2023-02-11T07:03:56;102239.44;;;7.48;100.00
18500;BME280;9379;52.134;11.576;2023-02-11T07:06:24;102241.97;;;7.32;100.00
18500;BME280;9379;52.134;11.576;2023-02-11T07:08:52;102239.75;;;7.42;100.00
18500;BME280;9379;52.134;11.576;2023-02-11T07:11:23;102238.28;;;7.53;100.00
18500;BME280;9379;52.134;11.576;2023-02-11T07:13:51;102238.28;;;7.53;100.00
18500;BME280;9379;52.134;11.576;2023-02-11T07:16:20;102236.53;;;7.35;100.00
18500;BME280;9379;52.134;11.576;2023-02-11T07:18:47;102231.59;;;7.27;100.00
18500;BME280;9379;52.134;11.576;2023-02-11T07:21:17;102233.91;;;7.52;100.00
18500;BME280;9379;52.134;11.576;2023-02-11T07:23:45;102225.53;;;7.61;100.00
18500;BME280;9379;52.134;11.576;2023-02-11T07:26:15;102232.31;;;7.67;100.00
18500;BME280;9379;52.134;11.576;2023-02-11T07:28:42;102228.94;;;7.64;100.00
18500;BME280;9379;52.134;11.576;2023-02-11T07:31:11;102230.72;;;7.63;100.00
18500;BME280;9379;52.134;11.576;2023-02-11T07:33:40;102236.06;;;7.80;100.00
18500;BME280;9379;52.134;11.576;2023-02-11T07:36:08;102235.81;;;7.85;100.00
18500;BME280;9379;52.134;11.576;2023-02-11T07:38:36;102238.16;;;7.91;100.00
18500;BME280;9379;52.134;11.576;2023-02-11T07:41:06;102218.69;;;7.92;100.00
18500;BME280;9379;52.134;11.576;2023-02-11T07:43:34;102227.63;;;8.07;100.00
18500;BME280;9379;52.134;11.576;2023-02-11T07:46:02;102220.00;;;8.01;100.00
18500;BME280;9379;52.134;11.576;2023-02-11T07:48:29;102221.81;;;8.00;100.00
18500;BME280;9379;52.134;11.576;2023-02-11T07:51:04;102223.81;;;8.12;100.00
18500;BME280;9379;52.134;11.576;2023-02-11T07:53:31;102227.72;;;8.05;100.00
18500;BME280;9379;52.134;11.576;2023-02-11T07:55:57;102229.53;;;7.87;100.00
18500;BME280;9379;52.134;11.576;2023-02-11T07:58:24;102221.56;;;8.05;100.00
18500;BME280;9379;52.134;11.576;2023-02-11T08:00:51;102222.75;;;7.65;100.00
18500;BME280;9379;52.134;11.576;2023-02-11T08:03:18;102219.53;;;7.93;100.00
18500;BME280;9379;52.134;11.576;2023-02-11T08:05:44;102245.69;;;7.81;100.00
18500;BME280;9379;52.134;11.576;2023-02-11T08:08:12;102235.09;;;7.99;100.00
18500;BME280;9379;52.134;11.576;2023-02-11T08:10:39;102245.84;;;7.96;100.00
18500;BME280;9379;52.134;11.576;2023-02-11T08:13:06;102247.25;;;8.03;100.00
18500;BME280;9379;52.134;11.576;2023-02-11T08:15:33;102250.44;;;8.09;100.00
18500;BME280;9379;52.134;11.576;2023-02-11T08:18:00;102256.38;;;8.14;100.00
18500;BME280;9379;52.134;11.576;2023-02-11T08:20:26;102250.28;;;7.95;100.00
18500;BME280;9379;52.134;11.576;2023-02-11T08:22:53;102260.34;;;8.06;100.00
18500;BME280;9379;52.134;11.576;2023-02-11T08:25:21;102260.59;;;8.01;100.00
18500;BME280;9379;52.134;11.576;2023-02-11T08:27:48;102259.16;;;8.29;100.00
18500;BME280;9379;52.134;11.576;2023-02-11T08:30:15;102262.81;;;8.43;99.66
18500;BME280;9379;52.134;11.576;2023-02-11T08:32:42;102272.97;;;8.35;100.00
18500;BME280;9379;52.134;11.576;2023-02-11T08:35:08;102270.72;;;8.10;100.00
18500;BME280;9379;52.134;11.576;2023-02-11T08:37:36;102274.53;;;8.22;100.00
18500;BME280;9379;52.134;11.576;2023-02-11T08:40:04;102267.66;;;8.18;100.00
18500;BME280;9379;52.134;11.576;2023-02-11T08:42:32;102262.91;;;8.25;100.00
18500;BME280;9379;52.134;11.576;2023-02-11T08:44:59;102237.63;;;8.02;100.00
18500;BME280;9379;52.134;11.576;2023-02-11T08:47:26;102234.75;;;7.89;100.00
18500;BME280;9379;52.134;11.576;2023-02-11T08:49:53;102258.25;;;8.12;100.00
18500;BME280;9379;52.134;11.576;2023-02-11T08:52:19;102243.03;;;8.16;100.00
18500;BME280;9379;52.134;11.576;2023-02-11T08:54:46;102246.38;;;8.19;100.00
18500;BME280;9379;52.134;11.576;2023-02-11T08:57:13;102241.09;;;8.19;100.00
18500;BME280;9379;52.134;11.576;2023-02-11T08:59:41;102242.78;;;8.20;100.00
18500;BME280;9379;52.134;11.576;2023-02-11T09:02:10;102241.78;;;8.40;100.00
18500;BME280;9379;52.134;11.576;2023-02-11T09:04:37;102231.28;;;8.39;100.00
18500;BME280;9379;52.134;11.576;2023-02-11T09:07:04;102239.47;;;8.34;100.00
18500;BME280;9379;52.134;11.576;2023-02-11T09:09:30;102231.81;;;8.45;100.00
18500;BME280;9379;52.134;11.576;2023-02-11T09:11:57;102225.53;;;8.64;100.00
18500;BME280;9379;52.134;11.576;2023-02-11T09:14:25;102226.84;;;8.55;99.60
18500;BME280;9379;52.134;11.576;2023-02-11T09:16:54;102228.41;;;8.09;100.00
18500;BME280;9379;52.134;11.576;2023-02-11T09:19:22;102237.03;;;8.30;100.00
18500;BME280;9379;52.134;11.576;2023-02-11T09:21:48;102235.72;;;8.38;100.00
18500;BME280;9379;52.134;11.576;2023-02-11T09:24:15;102242.47;;;8.44;100.00
18500;BME280;9379;52.134;11.576;2023-02-11T09:26:43;102243.19;;;8.47;100.00
18500;BME280;9379;52.134;11.576;2023-02-11T09:29:09;102253.03;;;8.45;100.00
18500;BME280;9379;52.134;11.576;2023-02-11T09:31:36;102248.06;;;8.55;100.00
18500;BME280;9379;52.134;11.576;2023-02-11T09:34:06;102266.31;;;8.61;100.00
18500;BME280;9379;52.134;11.576;2023-02-11T09:36:35;102257.16;;;8.67;100.00
18500;BME280;9379;52.134;11.576;2023-02-11T09:39:06;102258.81;;;8.69;100.00
18500;BME280;9379;52.134;11.576;2023-02-11T09:42:18;102267.41;;;8.57;100.00
18500;BME280;9379;52.134;11.576;2023-02-11T09:44:51;102265.28;;;8.64;100.00
18500;BME280;9379;52.134;11.576;2023-02-11T09:47:25;102280.50;;;8.60;100.00
18500;BME280;9379;52.134;11.576;2023-02-11T09:49:59;102291.78;;;8.64;100.00
18500;BME280;9379;52.134;11.576;2023-02-11T09:52:33;102285.53;;;8.65;100.00
18500;BME280;9379;52.134;11.576;2023-02-11T09:55:04;102296.75;;;9.03;99.78
18500;BME280;9379;52.134;11.576;2023-02-11T09:57:33;102293.09;;;8.72;100.00
18500;BME280;9379;52.134;11.576;2023-02-11T10:00:22;102296.41;;;8.93;100.00
18500;BME280;9379;52.134;11.576;2023-02-11T10:03:14;102290.16;;;8.94;100.00
18500;BME280;9379;52.134;11.576;2023-02-11T10:06:00;102302.97;;;9.02;99.84
18500;BME280;9379;52.134;11.576;2023-02-11T10:08:36;102298.47;;;9.04;99.28
18500;BME280;9379;52.134;11.576;2023-02-11T10:11:11;102309.50;;;9.12;99.37
18500;BME280;9379;52.134;11.576;2023-02-11T10:13:48;102312.88;;;8.83;100.00
18500;BME280;9379;52.134;11.576;2023-02-11T10:16:32;102312.03;;;8.82;100.00
18500;BME280;9379;52.134;11.576;2023-02-11T10:19:15;102319.28;;;9.27;99.17
18500;BME280;9379;52.134;11.576;2023-02-11T10:21:52;102319.34;;;9.10;100.00
18500;BME280;9379;52.134;11.576;2023-02-11T10:24:20;102307.09;;;9.07;99.93
18500;BME280;9379;52.134;11.576;2023-02-11T10:26:48;102322.06;;;9.24;100.00
18500;BME280;9379;52.134;11.576;2023-02-11T10:29:25;102311.06;;;9.16;99.91
18500;BME280;9379;52.134;11.576;2023-02-11T10:31:56;102314.38;;;9.20;100.00
18500;BME280;9379;52.134;11.576;2023-02-11T10:34:24;102297.44;;;9.06;100.00
18500;BME280;9379;52.134;11.576;2023-02-11T10:36:52;102295.72;;;9.05;100.00
18500;BME280;9379;52.134;11.576;2023-02-11T10:39:20;102305.16;;;9.27;100.00
18500;BME280;9379;52.134;11.576;2023-02-11T10:41:51;102320.09;;;9.12;100.00
18500;BME280;9379;52.134;11.576;2023-02-11T10:44:24;102332.69;;;9.24;100.00
18500;BME280;9379;52.134;11.576;2023-02-11T10:46:52;102312.75;;;9.49;98.78
18500;BME280;9379;52.134;11.576;2023-02-11T10:49:34;102314.63;;;9.47;99.85
18500;BME280;9379;52.134;11.576;2023-02-11T10:52:19;102299.22;;;9.38;100.00
18500;BME280;9379;52.134;11.576;2023-02-11T10:54:56;102305.47;;;9.21;100.00
18500;BME280;9379;52.134;11.576;2023-02-11T10:57:27;102280.66;;;9.22;100.00
18500;BME280;9379;52.134;11.576;2023-02-11T11:00:03;102289.66;;;9.51;99.95
18500;BME280;9379;52.134;11.576;2023-02-11T11:02:32;102292.72;;;9.43;100.00
18500;BME280;9379;52.134;11.576;2023-02-11T11:05:02;102288.19;;;9.29;100.00
18500;BME280;9379;52.134;11.576;2023-02-11T11:07:32;102293.00;;;9.39;100.00
18500;BME280;9379;52.134;11.576;2023-02-11T11:10:02;102297.84;;;9.46;100.00
18500;BME280;9379;52.134;11.576;2023-02-11T11:12:33;102300.19;;;9.52;100.00
18500;BME280;9379;52.134;11.576;2023-02-11T11:15:12;102302.03;;;9.66;99.77
18500;BME280;9379;52.134;11.576;2023-02-11T11:17:40;102309.56;;;9.58;100.00
18500;BME280;9379;52.134;11.576;2023-02-11T11:20:19;102322.59;;;9.47;100.00
18500;BME280;9379;52.134;11.576;2023-02-11T11:22:50;102323.09;;;9.38;100.00
18500;BME280;9379;52.134;11.576;2023-02-11T11:25:22;102331.59;;;9.76;99.36
18500;BME280;9379;52.134;11.576;2023-02-11T11:27:50;102339.03;;;9.69;99.60
18500;BME280;9379;52.134;11.576;2023-02-11T11:30:19;102330.81;;;9.42;100.00
18500;BME280;9379;52.134;11.576;2023-02-11T11:32:46;102317.88;;;9.36;100.00
18500;BME280;9379;52.134;11.576;2023-02-11T11:35:27;102336.63;;;9.49;100.00
18500;BME280;9379;52.134;11.576;2023-02-11T11:37:57;102317.72;;;9.55;100.00
18500;BME280;9379;52.134;11.576;2023-02-11T11:40:27;102313.84;;;9.60;100.00
18500;BME280;9379;52.134;11.576;2023-02-11T11:43:14;102309.44;;;9.61;100.00
18500;BME280;9379;52.134;11.576;2023-02-11T11:45:52;102311.66;;;9.53;100.00
18500;BME280;9379;52.134;11.576;2023-02-11T11:48:22;102286.66;;;9.41;100.00
18500;BME280;9379;52.134;11.576;2023-02-11T11:50:52;102301.84;;;9.69;100.00
18500;BME280;9379;52.134;11.576;2023-02-11T11:53:28;102306.59;;;9.48;100.00
18500;BME280;9379;52.134;11.576;2023-02-11T11:56:01;102308.47;;;9.62;100.00
18500;BME280;9379;52.134;11.576;2023-02-11T11:58:30;102316.78;;;9.56;100.00
18500;BME280;9379;52.134;11.576;2023-02-11T12:01:04;102314.03;;;9.57;100.00
18500;BME280;9379;52.134;11.576;2023-02-11T12:06:40;102307.63;;;9.61;100.00
18500;BME280;9379;52.134;11.576;2023-02-11T12:09:20;102311.38;;;9.73;100.00
18500;BME280;9379;52.134;11.576;2023-02-11T12:12:05;102307.31;;;9.98;100.00
18500;BME280;9379;52.134;11.576;2023-02-11T12:14:42;102309.63;;;9.72;100.00
18500;BME280;9379;52.134;11.576;2023-02-11T12:17:22;102305.28;;;9.87;100.00
18500;BME280;9379;52.134;11.576;2023-02-11T12:20:18;102306.78;;;9.61;100.00
18500;BME280;9379;52.134;11.576;2023-02-11T12:22:57;102306.78;;;9.91;99.85
18500;BME280;9379;52.134;11.576;2023-02-11T12:25:29;102306.84;;;9.75;100.00
18500;BME280;9379;52.134;11.576;2023-02-11T12:28:11;102304.41;;;9.86;100.00
18500;BME280;9379;52.134;11.576;2023-02-11T12:30:51;102316.34;;;9.48;100.00
18500;BME280;9379;52.134;11.576;2023-02-11T12:33:35;102312.16;;;9.75;100.00
18500;BME280;9379;52.134;11.576;2023-02-11T12:36:11;102310.78;;;9.68;100.00
18500;BME280;9379;52.134;11.576;2023-02-11T12:38:59;102308.53;;;9.76;100.00
18500;BME280;9379;52.134;11.576;2023-02-11T12:41:51;102307.31;;;9.82;100.00
18500;BME280;9379;52.134;11.576;2023-02-11T12:44:53;102306.56;;;9.80;100.00
18500;BME280;9379;52.134;11.576;2023-02-11T12:47:29;102303.94;;;9.64;100.00
18500;BME280;9379;52.134;11.576;2023-02-11T12:50:14;102320.13;;;9.44;100.00
18500;BME280;9379;52.134;11.576;2023-02-11T12:52:53;102300.53;;;9.62;100.00
18500;BME280;9379;52.134;11.576;2023-02-11T12:55:27;102318.31;;;9.76;100.00
18500;BME280;9379;52.134;11.576;2023-02-11T12:57:58;102313.44;;;9.68;100.00
18500;BME280;9379;52.134;11.576;2023-02-11T13:00:33;102312.31;;;9.56;100.00
18500;BME280;9379;52.134;11.576;2023-02-11T13:03:04;102305.00;;;9.91;100.00
18500;BME280;9379;52.134;11.576;2023-02-11T13:05:39;102303.66;;;9.69;100.00
18500;BME280;9379;52.134;11.576;2023-02-11T13:08:13;102304.97;;;9.61;100.00
18500;BME280;9379;52.134;11.576;2023-02-11T13:10:44;102308.81;;;9.56;100.00
18500;BME280;9379;52.134;11.576;2023-02-11T13:13:17;102298.34;;;9.69;100.00
18500;BME280;9379;52.134;11.576;2023-02-11T13:15:49;102301.72;;;9.41;100.00
18500;BME280;9379;52.134;11.576;2023-02-11T13:18:29;102299.09;;;9.71;100.00
18500;BME280;9379;52.134;11.576;2023-02-11T13:21:14;102299.09;;;9.86;100.00
18500;BME280;9379;52.134;11.576;2023-02-11T13:23:50;102291.63;;;9.93;100.00
18500;BME280;9379;52.134;11.576;2023-02-11T13:26:26;102277.00;;;9.86;100.00